Time;durP1;ratioP1;P1;durP2;ratioP2;P2;SDS_P1;SDS_P2;PMS_P1;PMS_P2;Temp;Humidity;BMP_temperature;BMP_pressure;BME280_temperature;BME280_humidity;BME280_pressure;Samples;Min_cycle;Max_cycle;Signal;HPM_P1;HPM_P2
2022/03/10 00:01:20;;;;;;;;;;;;;;;;;;5095742;28;19934;-49
2022/03/10 00:03:46;;;;;;;;;;;;;;;;;;5095545;28;19912;-49
2022/03/10 00:06:11;;;;;;;;;;;;;;;;;;5095407;28;19916;-49
2022/03/10 00:08:36;;;;;;;;;;;;;;;;;;5095331;28;20374;-48
2022/03/10 00:11:01;;;;;;;;;;;;;;;;;;5095249;28;19955;-48
2022/03/10 00:13:30;;;;;;;;;;;;;;;;;;5088900;28;19968;-48
2022/03/10 00:15:55;;;;;;;;;;;;;;;;;;5093735;28;20264;-50
2022/03/10 00:18:20;;;;;;;;;;;;;;;;;;5095161;28;19926;-50
2022/03/10 00:20:45;;;;;;;;;;;;;;;;;;5095299;28;20003;-49
2022/03/10 00:23:10;;;;;;;;;;;;;;;;;;5095315;28;19976;-49
2022/03/10 00:25:35;;;;;;;;;;;;;;;;;;5093586;28;20026;-51
2022/03/10 00:28:01;;;;;;;;;;;;;;;;;;5088501;28;19920;-49
2022/03/10 00:30:26;;;;;;;;;;;;;;;;;;5094999;28;19913;-49
2022/03/10 00:32:51;;;;;;;;;;;;;;;;;;5093687;28;19904;-51
2022/03/10 00:35:17;;;;;;;;;;;;;;;;;;5074536;28;19970;-50
2022/03/10 00:37:43;;;;;;;;;;;;;;;;;;5074626;28;19916;-50
2022/03/10 00:40:08;;;;;;;;;;;;;;;;;;5074690;28;19909;-50
2022/03/10 00:42:33;;;;;;;;;;;;;;;;;;5074752;28;20018;-48
2022/03/10 00:44:58;;;;;;;;;;;;;;;;;;5074425;28;19931;-48
2022/03/10 00:47:23;;;;;;;;;;;;;;;;;;5093261;28;19921;-49
2022/03/10 00:49:48;;;;;;;;;;;;;;;;;;5094363;28;20378;-48
2022/03/10 00:52:13;;;;;;;;;;;;;;;;;;5094810;28;20065;-50
2022/03/10 00:54:38;;;;;;;;;;;;;;;;;;5094762;28;20010;-49
2022/03/10 00:57:03;;;;;;;;;;;;;;;;;;5092357;28;19957;-48
2022/03/10 00:59:29;;;;;;;;;;;;;;;;;;5094807;28;19973;-48
2022/03/10 01:01:54;;;;;;;;;;;;;;;;;;5096944;28;20005;-48
2022/03/10 01:04:19;;;;;;;;;;;;;;;;;;5098773;28;20024;-49
2022/03/10 01:06:44;;;;;;;;;;;;;;;;;;5098804;28;20485;-48
2022/03/10 01:09:09;;;;;;;;;;;;;;;;;;5098870;28;20369;-49
2022/03/10 01:11:34;;;;;;;;;;;;;;;;;;5098630;28;19938;-49
2022/03/10 01:14:00;;;;;;;;;;;;;;;;;;5098486;28;20271;-48
2022/03/10 01:16:25;;;;;;;;;;;;;;;;;;5098652;28;19912;-48
2022/03/10 01:18:51;;;;;;;;;;;;;;;;;;5098407;28;19916;-48
2022/03/10 01:21:16;;;;;;;;;;;;;;;;;;5098292;28;19912;-48
2022/03/10 01:23:41;;;;;;;;;;;;;;;;;;5098320;28;19908;-48
2022/03/10 01:26:06;;;;;;;;;;;;;;;;;;5097728;28;19912;-49
2022/03/10 01:28:31;;;;;;;;;;;;;;;;;;5097875;28;19912;-49
2022/03/10 01:30:56;;;;;;;;;;;;;;;;;;5098279;28;19919;-49
2022/03/10 01:33:22;;;;;;;;;;;;;;;;;;5098396;28;19915;-49
2022/03/10 01:35:47;;;;;;;;;;;;;;;;;;5097974;28;19919;-49
2022/03/10 01:38:12;;;;;;;;;;;;;;;;;;5098131;28;19958;-48
2022/03/10 01:40:37;;;;;;;;;;;;;;;;;;5098219;28;19934;-48
2022/03/10 01:43:02;;;;;;;;;;;;;;;;;;5098049;28;19998;-49
2022/03/10 01:45:28;;;;;;;;;;;;;;;;;;5097788;28;19908;-49
2022/03/10 01:47:53;;;;;;;;;;;;;;;;;;5097652;28;20003;-48
2022/03/10 01:50:18;;;;;;;;;;;;;;;;;;5085151;28;19912;-51
2022/03/10 01:52:43;;;;;;;;;;;;;;;;;;5076309;28;19958;-49
2022/03/10 01:55:08;;;;;;;;;;;;;;;;;;5077400;28;19958;-49
2022/03/10 01:57:33;;;;;;;;;;;;;;;;;;5077519;28;19909;-49
2022/03/10 01:59:59;;;;;;;;;;;;;;;;;;5077562;28;19913;-49
2022/03/10 02:02:24;;;;;;;;;;;;;;;;;;5077540;28;19912;-49
2022/03/10 02:04:49;;;;;;;;;;;;;;;;;;5079699;28;19954;-48
2022/03/10 02:10:16;;;;;;;;;;;;;;;;;;5097799;28;19914;-48
2022/03/10 02:12:41;;;;;;;;;;;;;;;;;;5096474;28;20003;-47
2022/03/10 02:17:50;;;;;;;;;;;;;;;;;;5096988;28;19920;-50
2022/03/10 02:20:15;;;;;;;;;;;;;;;;;;5096635;28;20363;-48
2022/03/10 02:22:41;;;;;;;;;;;;;;;;;;5097341;28;20309;-49
2022/03/10 02:25:06;;;;;;;;;;;;;;;;;;5097334;28;19912;-49
2022/03/10 02:27:31;;;;;;;;;;;;;;;;;;5091954;28;19919;-48
2022/03/10 02:29:56;;;;;;;;;;;;;;;;;;5092519;28;20340;-48
2022/03/10 02:32:21;;;;;;;;;;;;;;;;;;5097258;28;19908;-48
2022/03/10 02:34:47;;;;;;;;;;;;;;;;;;5096846;28;19916;-48
2022/03/10 02:37:12;;;;;;;;;;;;;;;;;;5096996;28;19915;-47
2022/03/10 02:39:37;;;;;;;;;;;;;;;;;;5097011;28;19908;-50
2022/03/10 02:42:02;;;;;;;;;;;;;;;;;;5097007;28;19915;-48
2022/03/10 02:44:27;;;;;;;;;;;;;;;;;;5096921;28;19908;-47
2022/03/10 02:46:52;;;;;;;;;;;;;;;;;;5096805;28;20352;-47
2022/03/10 02:49:17;;;;;;;;;;;;;;;;;;5096811;28;20267;-48
2022/03/10 02:51:43;;;;;;;;;;;;;;;;;;5096892;28;20271;-48
2022/03/10 02:54:08;;;;;;;;;;;;;;;;;;5096729;28;19974;-48
2022/03/10 02:56:33;;;;;;;;;;;;;;;;;;5095418;28;19920;-48
2022/03/10 02:58:58;;;;;;;;;;;;;;;;;;5096548;28;20390;-49
2022/03/10 03:01:23;;;;;;;;;;;;;;;;;;5096563;28;19908;-47
2022/03/10 03:03:48;;;;;;;;;;;;;;;;;;5096480;28;20426;-50
2022/03/10 03:06:13;;;;;;;;;;;;;;;;;;5096347;28;20339;-47
2022/03/10 03:08:38;;;;;;;;;;;;;;;;;;5096206;28;20003;-49
2022/03/10 03:11:03;;;;;;;;;;;;;;;;;;5096477;28;19912;-46
2022/03/10 03:13:29;;;;;;;;;;;;;;;;;;5094971;28;19909;-48
2022/03/10 03:15:54;;;;;;;;;;;;;;;;;;5096187;28;19908;-50
2022/03/10 03:18:19;;;;;;;;;;;;;;;;;;5096188;28;20030;-49
2022/03/10 03:20:44;;;;;;;;;;;;;;;;;;5096424;28;20045;-49
2022/03/10 03:23:09;;;;;;;;;;;;;;;;;;5096108;28;20375;-49
2022/03/10 03:25:35;;;;;;;;;;;;;;;;;;5095793;28;19908;-50
2022/03/10 03:28:00;;;;;;;;;;;;;;;;;;5095357;28;19916;-49
2022/03/10 03:30:25;;;;;;;;;;;;;;;;;;5096165;28;20030;-48
2022/03/10 03:32:50;;;;;;;;;;;;;;;;;;5096151;28;19908;-50
2022/03/10 03:35:15;;;;;;;;;;;;;;;;;;5095919;28;20278;-49
2022/03/10 03:37:40;;;;;;;;;;;;;;;;;;5096017;28;19908;-49
2022/03/10 03:40:06;;;;;;;;;;;;;;;;;;5095892;28;19908;-49
2022/03/10 03:42:34;;;;;;;;;;;;;;;;;;5095380;28;19910;-47
2022/03/10 03:44:59;;;;;;;;;;;;;;;;;;5095632;28;19952;-48
2022/03/10 03:47:24;;;;;;;;;;;;;;;;;;5095640;28;19915;-47
2022/03/10 03:49:49;;;;;;;;;;;;;;;;;;5095719;28;19909;-50
2022/03/10 03:52:14;;;;;;;;;;;;;;;;;;5095722;28;19908;-48
2022/03/10 03:54:39;;;;;;;;;;;;;;;;;;5095365;28;19916;-48
2022/03/10 03:57:04;;;;;;;;;;;;;;;;;;5094893;28;20371;-48
2022/03/10 03:59:29;;;;;;;;;;;;;;;;;;5095584;28;19915;-48
2022/03/10 04:01:54;;;;;;;;;;;;;;;;;;5095457;28;19963;-49
2022/03/10 04:04:21;;;;;;;;;;;;;;;;;;5095369;28;20011;-47
2022/03/10 04:06:46;;;;;;;;;;;;;;;;;;5095269;28;19912;-49
2022/03/10 04:09:11;;;;;;;;;;;;;;;;;;5095205;28;20252;-49
2022/03/10 04:11:37;;;;;;;;;;;;;;;;;;5095151;28;19958;-48
2022/03/10 04:14:02;;;;;;;;;;;;;;;;;;5095223;28;20370;-49
2022/03/10 04:16:27;;;;;;;;;;;;;;;;;;5095304;28;19908;-49
2022/03/10 04:18:52;;;;;;;;;;;;;;;;;;5095007;28;19924;-49
2022/03/10 04:21:17;;;;;;;;;;;;;;;;;;5095149;28;19908;-49
2022/03/10 04:23:42;;;;;;;;;;;;;;;;;;5095615;28;19908;-49
2022/03/10 04:26:07;;;;;;;;;;;;;;;;;;5093869;28;19915;-47
2022/03/10 04:28:33;;;;;;;;;;;;;;;;;;5095315;28;19992;-47
2022/03/10 04:30:58;;;;;;;;;;;;;;;;;;5095045;28;19970;-47
2022/03/10 04:33:23;;;;;;;;;;;;;;;;;;5095110;28;19909;-47
2022/03/10 04:35:48;;;;;;;;;;;;;;;;;;5094346;28;19908;-48
2022/03/10 04:38:13;;;;;;;;;;;;;;;;;;5094864;28;19912;-47
2022/03/10 04:40:38;;;;;;;;;;;;;;;;;;5094882;28;19908;-48
2022/03/10 04:43:03;;;;;;;;;;;;;;;;;;5094840;28;19997;-48
2022/03/10 04:45:28;;;;;;;;;;;;;;;;;;5094816;28;20002;-49
2022/03/10 04:47:54;;;;;;;;;;;;;;;;;;5094569;28;19991;-48
2022/03/10 04:50:19;;;;;;;;;;;;;;;;;;5094626;28;19908;-48
2022/03/10 04:52:44;;;;;;;;;;;;;;;;;;5094655;28;20379;-48
2022/03/10 04:55:10;;;;;;;;;;;;;;;;;;5094498;28;19916;-47
2022/03/10 04:57:35;;;;;;;;;;;;;;;;;;5093584;28;20042;-48
2022/03/10 05:00:00;;;;;;;;;;;;;;;;;;5094531;28;19948;-47
2022/03/10 05:02:26;;;;;;;;;;;;;;;;;;5095301;28;19908;-47
2022/03/10 05:04:51;;;;;;;;;;;;;;;;;;5094655;28;19978;-48
2022/03/10 05:07:16;;;;;;;;;;;;;;;;;;5094844;28;20015;-48
2022/03/10 05:09:41;;;;;;;;;;;;;;;;;;5079737;28;19918;-47
2022/03/10 05:12:06;;;;;;;;;;;;;;;;;;5074449;28;19920;-46
2022/03/10 05:14:31;;;;;;;;;;;;;;;;;;5074199;28;19912;-47
2022/03/10 05:16:56;;;;;;;;;;;;;;;;;;5074373;28;20310;-49
2022/03/10 05:19:22;;;;;;;;;;;;;;;;;;5074003;28;19944;-47
2022/03/10 05:21:47;;;;;;;;;;;;;;;;;;5074208;28;20299;-50
2022/03/10 05:24:12;;;;;;;;;;;;;;;;;;5075752;28;20374;-48
2022/03/10 05:26:37;;;;;;;;;;;;;;;;;;5085923;28;20412;-49
2022/03/10 05:29:02;;;;;;;;;;;;;;;;;;5074285;28;19909;-49
2022/03/10 05:31:27;;;;;;;;;;;;;;;;;;5074278;28;19908;-49
2022/03/10 05:33:52;;;;;;;;;;;;;;;;;;5086155;28;19986;-50
2022/03/10 05:36:17;;;;;;;;;;;;;;;;;;5094477;28;19938;-50
2022/03/10 05:38:43;;;;;;;;;;;;;;;;;;5094499;28;19912;-49
2022/03/10 05:41:09;;;;;;;;;;;;;;;;;;5094288;28;20317;-49
2022/03/10 05:43:34;;;;;;;;;;;;;;;;;;5094290;28;19908;-49
2022/03/10 05:45:59;;;;;;;;;;;;;;;;;;5094214;28;19960;-48
2022/03/10 05:48:24;;;;;;;;;;;;;;;;;;5097064;28;19991;-48
2022/03/10 05:50:49;;;;;;;;;;;;;;;;;;5097879;28;20429;-48
2022/03/10 05:53:15;;;;;;;;;;;;;;;;;;5097782;28;20311;-48
2022/03/10 05:55:40;;;;;;;;;;;;;;;;;;5096524;28;20014;-48
2022/03/10 05:58:05;;;;;;;;;;;;;;;;;;5077568;28;19916;-49
2022/03/10 06:00:30;;;;;;;;;;;;;;;;;;5077457;28;20370;-49
2022/03/10 06:02:55;;;;;;;;;;;;;;;;;;5077432;28;20327;-50
2022/03/10 06:05:20;;;;;;;;;;;;;;;;;;5077408;28;19912;-48
2022/03/10 06:07:45;;;;;;;;;;;;;;;;;;5079423;28;19912;-49
2022/03/10 06:10:11;;;;;;;;;;;;;;;;;;5097478;28;19908;-48
2022/03/10 06:12:36;;;;;;;;;;;;;;;;;;5097472;28;20371;-48
2022/03/10 06:15:01;;;;;;;;;;;;;;;;;;5097681;28;19919;-48
2022/03/10 06:17:26;;;;;;;;;;;;;;;;;;5097349;28;19922;-49
2022/03/10 06:19:51;;;;;;;;;;;;;;;;;;5097050;28;19926;-47
2022/03/10 06:22:16;;;;;;;;;;;;;;;;;;5097454;28;19915;-48
2022/03/10 06:24:41;;;;;;;;;;;;;;;;;;5097021;28;19912;-50
2022/03/10 06:27:06;;;;;;;;;;;;;;;;;;5094815;28;20030;-49
2022/03/10 06:29:32;;;;;;;;;;;;;;;;;;5097235;28;19998;-47
2022/03/10 06:31:57;;;;;;;;;;;;;;;;;;5088361;28;19930;-47
2022/03/10 06:34:23;;;;;;;;;;;;;;;;;;5089571;28;19916;-49
2022/03/10 06:36:48;;;;;;;;;;;;;;;;;;5084794;28;19930;-48
2022/03/10 06:39:13;;;;;;;;;;;;;;;;;;5091173;28;20282;-54
2022/03/10 06:41:39;;;;;;;;;;;;;;;;;;5081915;28;19913;-52
2022/03/10 06:44:04;;;;;;;;;;;;;;;;;;5088017;28;20325;-52
2022/03/10 06:46:30;;;;;;;;;;;;;;;;;;5074409;28;19912;-52
2022/03/10 06:48:55;;;;;;;;;;;;;;;;;;5086424;28;20318;-53
2022/03/10 06:51:21;;;;;;;;;;;;;;;;;;5079362;28;19912;-53
2022/03/10 06:53:46;;;;;;;;;;;;;;;;;;5078143;28;20298;-52
2022/03/10 06:56:11;;;;;;;;;;;;;;;;;;5064819;28;19916;-53
2022/03/10 06:58:36;;;;;;;;;;;;;;;;;;5079123;28;20023;-52
2022/03/10 07:01:01;;;;;;;;;;;;;;;;;;5070001;28;19921;-52
2022/03/10 07:03:26;;;;;;;;;;;;;;;;;;5050675;28;19921;-52
2022/03/10 07:05:51;;;;;;;;;;;;;;;;;;5045995;28;19920;-53
2022/03/10 07:08:16;;;;;;;;;;;;;;;;;;5066657;28;20290;-52
2022/03/10 07:10:42;;;;;;;;;;;;;;;;;;5047700;28;19920;-52
2022/03/10 07:13:07;;;;;;;;;;;;;;;;;;5038358;28;19920;-53
2022/03/10 07:15:32;;;;;;;;;;;;;;;;;;5030024;28;19924;-53
2022/03/10 07:17:57;;;;;;;;;;;;;;;;;;4978627;28;20605;-53
2022/03/10 07:20:22;;;;;;;;;;;;;;;;;;4923098;28;21390;-53
2022/03/10 07:22:47;;;;;;;;;;;;;;;;;;4844288;28;20497;-55
2022/03/10 07:25:12;;;;;;;;;;;;;;;;;;4756323;28;20738;-54
2022/03/10 07:27:38;;;;;;;;;;;;;;;;;;4756074;28;21977;-53
2022/03/10 07:30:03;;;;;;;;;;;;;;;;;;4770389;28;19971;-53
2022/03/10 07:32:29;;;;;;;;;;;;;;;;;;4810020;28;22407;-50
2022/03/10 07:34:54;;;;;;;;;;;;;;;;;;4854385;28;20060;-52
2022/03/10 07:37:19;;;;;;;;;;;;;;;;;;4924567;28;19973;-53
2022/03/10 07:39:44;;;;;;;;;;;;;;;;;;4941098;28;20535;-52
2022/03/10 07:42:09;;;;;;;;;;;;;;;;;;4943271;28;20048;-52
2022/03/10 07:44:35;;;;;;;;;;;;;;;;;;4973033;28;19952;-52
2022/03/10 07:47:00;;;;;;;;;;;;;;;;;;4949713;28;19920;-54
2022/03/10 07:49:25;;;;;;;;;;;;;;;;;;4940184;28;20837;-53
2022/03/10 07:51:50;;;;;;;;;;;;;;;;;;4952910;28;19920;-54
2022/03/10 07:54:15;;;;;;;;;;;;;;;;;;4932781;28;19924;-52
2022/03/10 07:56:40;;;;;;;;;;;;;;;;;;4948786;28;19951;-53
2022/03/10 07:59:05;;;;;;;;;;;;;;;;;;4953575;28;20073;-54
2022/03/10 08:01:31;;;;;;;;;;;;;;;;;;4949663;28;21669;-53
2022/03/10 08:03:56;;;;;;;;;;;;;;;;;;4939420;28;20069;-54
2022/03/10 08:06:22;;;;;;;;;;;;;;;;;;4923859;28;20694;-52
2022/03/10 08:08:47;;;;;;;;;;;;;;;;;;4913214;28;19920;-53
2022/03/10 08:11:12;;;;;;;;;;;;;;;;;;4893791;28;19927;-53
2022/03/10 08:13:37;;;;;;;;;;;;;;;;;;4846817;28;22290;-54
2022/03/10 08:16:02;;;;;;;;;;;;;;;;;;4800938;28;19927;-52
2022/03/10 08:18:27;;;;;;;;;;;;;;;;;;4713464;28;24376;-56
2022/03/10 08:20:54;;;;;;;;;;;;;;;;;;4656069;28;21572;-56
2022/03/10 08:23:19;;;;;;;;;;;;;;;;;;4679139;28;21924;-53
2022/03/10 08:25:44;;;;;;;;;;;;;;;;;;4664078;28;23900;-54
2022/03/10 08:28:09;;;;;;;;;;;;;;;;;;4727439;28;21879;-56
2022/03/10 08:30:34;;;;;;;;;;;;;;;;;;4786627;28;20078;-53
2022/03/10 08:32:59;;;;;;;;;;;;;;;;;;4770228;28;19982;-54
2022/03/10 08:35:24;;;;;;;;;;;;;;;;;;4780063;28;21108;-54
2022/03/10 08:37:50;;;;;;;;;;;;;;;;;;4767223;28;20616;-54
2022/03/10 08:40:17;;;;;;;;;;;;;;;;;;4763705;28;23907;-54
2022/03/10 08:42:42;;;;;;;;;;;;;;;;;;4763422;28;22640;-55
2022/03/10 08:45:07;;;;;;;;;;;;;;;;;;4751438;28;19954;-54
2022/03/10 08:47:32;;;;;;;;;;;;;;;;;;4721042;28;22217;-55
2022/03/10 08:49:57;;;;;;;;;;;;;;;;;;4782612;28;23435;-53
2022/03/10 08:52:23;;;;;;;;;;;;;;;;;;4692669;28;19931;-54
2022/03/10 08:54:48;;;;;;;;;;;;;;;;;;4702629;28;20423;-54
2022/03/10 08:57:13;;;;;;;;;;;;;;;;;;4696427;28;20673;-55
2022/03/10 08:59:38;;;;;;;;;;;;;;;;;;4687885;28;20616;-53
2022/03/10 09:02:03;;;;;;;;;;;;;;;;;;4739981;28;19920;-54
2022/03/10 09:04:29;;;;;;;;;;;;;;;;;;4716396;28;21069;-56
2022/03/10 09:06:54;;;;;;;;;;;;;;;;;;4653370;28;22681;-55
2022/03/10 09:09:19;;;;;;;;;;;;;;;;;;4701898;28;19924;-53
2022/03/10 09:11:44;;;;;;;;;;;;;;;;;;4607049;28;19927;-54
2022/03/10 09:14:09;;;;;;;;;;;;;;;;;;4678127;28;20627;-55
2022/03/10 09:16:34;;;;;;;;;;;;;;;;;;4748118;28;23392;-55
2022/03/10 09:19:02;;;;;;;;;;;;;;;;;;4781478;23;20657;-53
2022/03/10 09:21:28;;;;;;;;;;;;;;;;;;4798876;28;19978;-53
2022/03/10 09:23:53;;;;;;;;;;;;;;;;;;4800522;28;19920;-54
2022/03/10 09:26:18;;;;;;;;;;;;;;;;;;4773505;28;22157;-55
2022/03/10 09:28:43;;;;;;;;;;;;;;;;;;4823085;28;20030;-54
2022/03/10 09:31:12;;;;;;;;;;;;;;;;;;4827576;28;19921;-54
2022/03/10 09:33:46;;;;;;;;;;;;;;;;;;4615052;28;19920;-54
2022/03/10 09:36:11;;;;;;;;;;;;;;;;;;4747190;28;20388;-54
2022/03/10 09:38:36;;;;;;;;;;;;;;;;;;4762334;28;19974;-54
2022/03/10 09:41:01;;;;;;;;;;;;;;;;;;4794014;28;20143;-55
2022/03/10 09:43:27;;;;;;;;;;;;;;;;;;4803093;28;21166;-54
2022/03/10 09:45:52;;;;;;;;;;;;;;;;;;4856861;28;19921;-54
2022/03/10 09:48:17;;;;;;;;;;;;;;;;;;4860899;28;21911;-55
2022/03/10 09:50:42;;;;;;;;;;;;;;;;;;4828422;28;19925;-58
2022/03/10 09:53:07;;;;;;;;;;;;;;;;;;4758079;28;19970;-56
2022/03/10 09:55:32;;;;;;;;;;;;;;;;;;4751085;28;20620;-54
2022/03/10 09:57:57;;;;;;;;;;;;;;;;;;4724266;28;19921;-54
2022/03/10 10:00:23;;;;;;;;;;;;;;;;;;4712144;28;20945;-55
2022/03/10 10:02:48;;;;;;;;;;;;;;;;;;4715728;28;20556;-55
2022/03/10 10:05:13;;;;;;;;;;;;;;;;;;4729605;28;23517;-55
2022/03/10 10:07:38;;;;;;;;;;;;;;;;;;4722466;28;19921;-57
2022/03/10 10:10:06;;;;;;;;;;;;;;;;;;4702457;28;23899;-53
2022/03/10 10:12:31;;;;;;;;;;;;;;;;;;4720641;28;21727;-55
2022/03/10 10:14:56;;;;;;;;;;;;;;;;;;4691670;28;23261;-54
2022/03/10 10:17:21;;;;;;;;;;;;;;;;;;4702900;28;22663;-58
2022/03/10 10:19:46;;;;;;;;;;;;;;;;;;4640235;28;21872;-55
2022/03/10 10:22:12;;;;;;;;;;;;;;;;;;4563569;28;21376;-52
2022/03/10 10:24:38;;;;;;;;;;;;;;;;;;4452476;28;21953;-54
2022/03/10 10:27:03;;;;;;;;;;;;;;;;;;4498007;28;21581;-56
2022/03/10 10:29:28;;;;;;;;;;;;;;;;;;4572538;28;21083;-54
2022/03/10 10:31:53;;;;;;;;;;;;;;;;;;4625232;28;21553;-54
2022/03/10 10:34:18;;;;;;;;;;;;;;;;;;4644436;28;20013;-53
2022/03/10 10:36:46;;;;;;;;;;;;;;;;;;4678901;28;20726;-54
2022/03/10 10:39:11;;;;;;;;;;;;;;;;;;4729885;28;20003;-55
2022/03/10 10:41:36;;;;;;;;;;;;;;;;;;4706006;28;19921;-55
2022/03/10 10:44:02;;;;;;;;;;;;;;;;;;4720659;28;20443;-54
2022/03/10 10:46:27;;;;;;;;;;;;;;;;;;4698724;28;20050;-56
2022/03/10 10:48:52;;;;;;;;;;;;;;;;;;4699689;28;21103;-55
2022/03/10 10:51:17;;;;;;;;;;;;;;;;;;4699620;28;21162;-55
2022/03/10 10:53:42;;;;;;;;;;;;;;;;;;4706017;28;20920;-55
2022/03/10 10:56:07;;;;;;;;;;;;;;;;;;4723538;28;21084;-57
2022/03/10 10:58:33;;;;;;;;;;;;;;;;;;4708181;28;21175;-56
2022/03/10 11:00:58;;;;;;;;;;;;;;;;;;4610811;28;20688;-53
2022/03/10 11:03:23;;;;;;;;;;;;;;;;;;4616666;28;20603;-56
2022/03/10 11:05:48;;;;;;;;;;;;;;;;;;4612293;28;20297;-53
2022/03/10 11:08:13;;;;;;;;;;;;;;;;;;4601778;28;19975;-52
2022/03/10 11:10:38;;;;;;;;;;;;;;;;;;4631768;28;20059;-56
2022/03/10 11:13:03;;;;;;;;;;;;;;;;;;4489025;28;22800;-57
2022/03/10 11:15:29;;;;;;;;;;;;;;;;;;4441232;28;21448;-52
2022/03/10 11:17:54;;;;;;;;;;;;;;;;;;4548776;28;20039;-55
2022/03/10 11:20:19;;;;;;;;;;;;;;;;;;4613475;28;19936;-56
2022/03/10 11:22:44;;;;;;;;;;;;;;;;;;4620070;28;19928;-56
2022/03/10 11:25:09;;;;;;;;;;;;;;;;;;4659334;28;24275;-53
2022/03/10 11:27:34;;;;;;;;;;;;;;;;;;4643401;28;19928;-55
2022/03/10 11:29:59;;;;;;;;;;;;;;;;;;4644943;28;20642;-53
2022/03/10 11:32:24;;;;;;;;;;;;;;;;;;4655839;28;21029;-54
2022/03/10 11:34:50;;;;;;;;;;;;;;;;;;4626001;28;23135;-48
2022/03/10 11:37:15;;;;;;;;;;;;;;;;;;4549419;28;19975;-51
2022/03/10 11:39:40;;;;;;;;;;;;;;;;;;4586090;28;21002;-51
2022/03/10 11:42:05;;;;;;;;;;;;;;;;;;4472323;28;20536;-50
2022/03/10 11:44:30;;;;;;;;;;;;;;;;;;4584028;28;26252;-50
2022/03/10 11:46:57;;;;;;;;;;;;;;;;;;4677663;28;21229;-53
2022/03/10 11:49:22;;;;;;;;;;;;;;;;;;4670183;28;19937;-50
2022/03/10 11:51:48;;;;;;;;;;;;;;;;;;4659587;28;22982;-52
2022/03/10 11:54:13;;;;;;;;;;;;;;;;;;4661578;28;20959;-52
2022/03/10 11:56:38;;;;;;;;;;;;;;;;;;4667336;28;21508;-50
2022/03/10 11:59:03;;;;;;;;;;;;;;;;;;4621230;28;20185;-49
2022/03/10 12:01:28;;;;;;;;;;;;;;;;;;4650078;28;20091;-54
2022/03/10 12:03:53;;;;;;;;;;;;;;;;;;4631480;28;20004;-51
2022/03/10 12:06:18;;;;;;;;;;;;;;;;;;4762710;28;21413;-52
2022/03/10 12:08:44;;;;;;;;;;;;;;;;;;4785245;28;22598;-52
2022/03/10 12:11:09;;;;;;;;;;;;;;;;;;4795648;28;19983;-51
2022/03/10 12:13:34;;;;;;;;;;;;;;;;;;4836528;28;19928;-53
2022/03/10 12:15:59;;;;;;;;;;;;;;;;;;4826770;28;20342;-51
2022/03/10 12:18:24;;;;;;;;;;;;;;;;;;4832408;28;20830;-50
2022/03/10 12:20:49;;;;;;;;;;;;;;;;;;4822969;28;20481;-50
2022/03/10 12:23:19;;;;;;;;;;;;;;;;;;4825382;28;19920;-51
2022/03/10 12:25:44;;;;;;;;;;;;;;;;;;4826732;28;20064;-51
2022/03/10 12:28:09;;;;;;;;;;;;;;;;;;4765454;28;19924;-52
2022/03/10 12:30:34;;;;;;;;;;;;;;;;;;4684526;28;20064;-50
2022/03/10 12:33:00;;;;;;;;;;;;;;;;;;4395083;28;22029;-53
2022/03/10 12:35:25;;;;;;;;;;;;;;;;;;4455860;28;19924;-51
2022/03/10 12:37:50;;;;;;;;;;;;;;;;;;4592494;28;19994;-49
2022/03/10 12:40:15;;;;;;;;;;;;;;;;;;4650205;28;21257;-53
2022/03/10 12:42:40;;;;;;;;;;;;;;;;;;4664407;28;24038;-51
2022/03/10 12:45:05;;;;;;;;;;;;;;;;;;4661829;28;20593;-51
2022/03/10 12:47:30;;;;;;;;;;;;;;;;;;4720983;28;19929;-51
2022/03/10 12:49:56;;;;;;;;;;;;;;;;;;4700674;28;20633;-53
2022/03/10 12:52:27;;;;;;;;;;;;;;;;;;4717089;28;21702;-53
2022/03/10 12:54:52;;;;;;;;;;;;;;;;;;4744067;28;20705;-51
2022/03/10 12:57:17;;;;;;;;;;;;;;;;;;4697512;28;20045;-51
2022/03/10 12:59:42;;;;;;;;;;;;;;;;;;4688234;28;20267;-51
2022/03/10 13:02:07;;;;;;;;;;;;;;;;;;4717998;28;22721;-50
2022/03/10 13:04:32;;;;;;;;;;;;;;;;;;4748110;28;19927;-52
2022/03/10 13:06:58;;;;;;;;;;;;;;;;;;4755368;28;19928;-50
2022/03/10 13:09:23;;;;;;;;;;;;;;;;;;4730720;28;19920;-50
2022/03/10 13:11:49;;;;;;;;;;;;;;;;;;4726897;28;20046;-53
2022/03/10 13:14:14;;;;;;;;;;;;;;;;;;4705058;28;23181;-52
2022/03/10 13:16:39;;;;;;;;;;;;;;;;;;4671692;28;21050;-52
2022/03/10 13:19:04;;;;;;;;;;;;;;;;;;4669827;28;20685;-50
2022/03/10 13:21:29;;;;;;;;;;;;;;;;;;4697311;28;19928;-51
2022/03/10 13:23:55;;;;;;;;;;;;;;;;;;4685551;28;19998;-51
2022/03/10 13:26:26;;;;;;;;;;;;;;;;;;4701663;28;20007;-51
2022/03/10 13:28:51;;;;;;;;;;;;;;;;;;4755110;28;20575;-51
2022/03/10 13:31:16;;;;;;;;;;;;;;;;;;4750644;28;21831;-49
2022/03/10 13:33:41;;;;;;;;;;;;;;;;;;4769427;28;20081;-52
2022/03/10 13:36:06;;;;;;;;;;;;;;;;;;4719054;28;19925;-50
2022/03/10 13:38:33;;;;;;;;;;;;;;;;;;4751532;28;21421;-53
2022/03/10 13:41:01;;;;;;;;;;;;;;;;;;4754639;28;21582;-51
2022/03/10 13:43:27;;;;;;;;;;;;;;;;;;4773376;28;21079;-51
2022/03/10 13:45:52;;;;;;;;;;;;;;;;;;4783292;28;20649;-53
2022/03/10 13:48:17;;;;;;;;;;;;;;;;;;4733370;28;19921;-50
2022/03/10 13:50:42;;;;;;;;;;;;;;;;;;4753983;28;22167;-52
2022/03/10 13:53:11;;;;;;;;;;;;;;;;;;4743768;28;22123;-50
2022/03/10 13:55:36;;;;;;;;;;;;;;;;;;4779952;28;19924;-50
2022/03/10 13:58:01;;;;;;;;;;;;;;;;;;4784372;28;22226;-52
2022/03/10 14:00:26;;;;;;;;;;;;;;;;;;4796702;28;19922;-52
2022/03/10 14:02:52;;;;;;;;;;;;;;;;;;4750783;28;20557;-49
2022/03/10 14:05:18;;;;;;;;;;;;;;;;;;4742417;28;20875;-49
2022/03/10 14:07:43;;;;;;;;;;;;;;;;;;4780652;28;19928;-50
2022/03/10 14:10:08;;;;;;;;;;;;;;;;;;4733542;23;20456;-49
2022/03/10 14:12:33;;;;;;;;;;;;;;;;;;4625667;28;21974;-53
2022/03/10 14:14:58;;;;;;;;;;;;;;;;;;4645102;28;19929;-49
2022/03/10 14:17:23;;;;;;;;;;;;;;;;;;4783197;28;19920;-49
2022/03/10 14:19:48;;;;;;;;;;;;;;;;;;4824637;28;20248;-50
2022/03/10 14:22:14;;;;;;;;;;;;;;;;;;4812339;28;21020;-49
2022/03/10 14:24:39;;;;;;;;;;;;;;;;;;4853261;28;19920;-49
2022/03/10 14:27:04;;;;;;;;;;;;;;;;;;4882096;28;20500;-49
2022/03/10 14:29:29;;;;;;;;;;;;;;;;;;4866460;28;19921;-50
2022/03/10 14:31:54;;;;;;;;;;;;;;;;;;4885320;28;20014;-51
2022/03/10 14:34:19;;;;;;;;;;;;;;;;;;4885055;28;20001;-47
2022/03/10 14:36:45;;;;;;;;;;;;;;;;;;4917864;28;20018;-49
2022/03/10 14:39:10;;;;;;;;;;;;;;;;;;4887150;28;19921;-52
2022/03/10 14:41:36;;;;;;;;;;;;;;;;;;4908144;28;20501;-49
2022/03/10 14:44:04;;;;;;;;;;;;;;;;;;4902722;28;19921;-50
2022/03/10 14:46:29;;;;;;;;;;;;;;;;;;4889959;28;19921;-49
2022/03/10 14:48:55;;;;;;;;;;;;;;;;;;4903097;28;20964;-50
2022/03/10 14:51:20;;;;;;;;;;;;;;;;;;4889580;28;20008;-49
2022/03/10 14:53:45;;;;;;;;;;;;;;;;;;4875460;28;20310;-49
2022/03/10 14:56:11;;;;;;;;;;;;;;;;;;4868229;28;20913;-49
2022/03/10 14:58:38;;;;;;;;;;;;;;;;;;4826440;28;21000;-51
2022/03/10 15:01:03;;;;;;;;;;;;;;;;;;4806722;28;23128;-52
2022/03/10 15:03:28;;;;;;;;;;;;;;;;;;4861964;28;20658;-54
2022/03/10 15:05:53;;;;;;;;;;;;;;;;;;4915538;28;20405;-52
2022/03/10 15:08:19;;;;;;;;;;;;;;;;;;4963025;28;20059;-52
2022/03/10 15:10:44;;;;;;;;;;;;;;;;;;4976335;28;20363;-50
2022/03/10 15:13:09;;;;;;;;;;;;;;;;;;5000085;28;22224;-50
2022/03/10 15:15:34;;;;;;;;;;;;;;;;;;4993941;28;20154;-51
2022/03/10 15:18:00;;;;;;;;;;;;;;;;;;5004501;28;20307;-50
2022/03/10 15:20:25;;;;;;;;;;;;;;;;;;4999378;28;19969;-50
2022/03/10 15:22:56;;;;;;;;;;;;;;;;;;5002355;28;19921;-49
2022/03/10 15:25:21;;;;;;;;;;;;;;;;;;4995971;28;19978;-49
2022/03/10 15:27:46;;;;;;;;;;;;;;;;;;5003934;28;19920;-49
2022/03/10 15:30:11;;;;;;;;;;;;;;;;;;5001544;28;21622;-47
2022/03/10 15:32:36;;;;;;;;;;;;;;;;;;5007790;28;20330;-51
2022/03/10 15:35:01;;;;;;;;;;;;;;;;;;5002299;28;19925;-52
2022/03/10 15:37:26;;;;;;;;;;;;;;;;;;5009448;28;19920;-50
2022/03/10 15:39:52;;;;;;;;;;;;;;;;;;5011729;28;19921;-52
2022/03/10 15:42:17;;;;;;;;;;;;;;;;;;5004000;28;19983;-52
2022/03/10 15:44:42;;;;;;;;;;;;;;;;;;4990563;28;19991;-53
2022/03/10 15:47:07;;;;;;;;;;;;;;;;;;5002889;28;19913;-50
2022/03/10 15:49:35;;;;;;;;;;;;;;;;;;4998687;28;19920;-52
2022/03/10 15:52:01;;;;;;;;;;;;;;;;;;4965704;28;21551;-52
2022/03/10 15:54:26;;;;;;;;;;;;;;;;;;4978040;28;20517;-50
2022/03/10 15:56:51;;;;;;;;;;;;;;;;;;4974004;28;19924;-51
2022/03/10 15:59:16;;;;;;;;;;;;;;;;;;4996637;28;20019;-48
2022/03/10 16:01:42;;;;;;;;;;;;;;;;;;5024945;28;20279;-52
2022/03/10 16:04:08;;;;;;;;;;;;;;;;;;5027543;28;20297;-52
2022/03/10 16:06:33;;;;;;;;;;;;;;;;;;5029922;28;19975;-49
2022/03/10 16:08:58;;;;;;;;;;;;;;;;;;5032092;28;19985;-49
2022/03/10 16:11:23;;;;;;;;;;;;;;;;;;5039487;28;20000;-50
2022/03/10 16:13:49;;;;;;;;;;;;;;;;;;5037387;28;19921;-49
2022/03/10 16:16:14;;;;;;;;;;;;;;;;;;5040139;28;19917;-52
2022/03/10 16:18:42;;;;;;;;;;;;;;;;;;5041810;28;20192;-50
2022/03/10 16:21:07;;;;;;;;;;;;;;;;;;5044705;28;20279;-49
2022/03/10 16:23:32;;;;;;;;;;;;;;;;;;5049411;28;19916;-49
2022/03/10 16:25:57;;;;;;;;;;;;;;;;;;5040348;28;20004;-49
2022/03/10 16:28:22;;;;;;;;;;;;;;;;;;5033703;28;20454;-49
2022/03/10 16:30:47;;;;;;;;;;;;;;;;;;5036065;28;20319;-49
2022/03/10 16:33:12;;;;;;;;;;;;;;;;;;5041326;28;20004;-50
2022/03/10 16:35:37;;;;;;;;;;;;;;;;;;5031755;28;19929;-51
2022/03/10 16:38:04;;;;;;;;;;;;;;;;;;5037109;28;19917;-50